SKPE/PEI METAR and TAF weather

Enter ICAO airport designator
Station Type Date Time Source
SKPE METAR 2021/09/16 22:00 UTC NOAA

SKPE 162200Z 34004KT 9999 FEW015 SCT080 27/18 Q1015 RMK A2998


Station Type Date Time Source
SKPE Decoded METAR 2021/09/16 22:00 UTC NOAA

Pereira / Matecana, Colombia (SKPE) 04-49N 075-44W 1342M
Sep 16, 2021 - 06:00 PM EDT / 2021.09.16 2200 UTC
Wind: from the NNW (340 degrees) at 5 MPH (4 KT):0
Visibility: greater than 7 mile(s):0
Sky conditions: partly cloudy
Temperature: 80 F (27 C)
Dew Point: 64 F (18 C)
Relative Humidity: 57%
Pressure (altimeter): 29.97 in. Hg (1015 hPa)
ob: SKPE 162200Z 34004KT 9999 FEW015 SCT080 27/18 Q1015 RMK A2998
cycle: 22

Station Type Date Time Source
SKPE TAF 2021/09/16 18:45 UTC NOAA

TAF SKPE 161630Z 1618/1718 30006KT 9999 SCT017
TEMPO 1621/1623 10004KT 8000 VCSH SCT017TU PROB30
TEMPO 1623/1701 7000 DZRA SCT015CB
BECMG 1701/1702 VRB03KT FEW017 BKN080
TEMPO 1710/1713 8000 VCFG TX29/1619Z TN17/1710Z

Example: see airport list